sensor_id;sensor_type;location;lat;lon;timestamp;temperature;humidity
56046;DHT22;41913;51.030;3.706;2022-12-24T00:01:10;19.40;95.50
56046;DHT22;41913;51.030;3.706;2022-12-24T00:03:36;19.40;95.50
56046;DHT22;41913;51.030;3.706;2022-12-24T00:06:09;19.40;95.50
56046;DHT22;41913;51.030;3.706;2022-12-24T00:08:38;19.40;95.50
56046;DHT22;41913;51.030;3.706;2022-12-24T00:11:06;19.40;95.50
56046;DHT22;41913;51.030;3.706;2022-12-24T00:13:32;19.40;95.50
56046;DHT22;41913;51.030;3.706;2022-12-24T00:15:57;19.40;95.50
56046;DHT22;41913;51.030;3.706;2022-12-24T00:18:23;19.40;95.70
56046;DHT22;41913;51.030;3.706;2022-12-24T00:20:49;19.40;95.50
56046;DHT22;41913;51.030;3.706;2022-12-24T00:23:16;19.30;95.40
56046;DHT22;41913;51.030;3.706;2022-12-24T00:25:42;19.40;95.50
56046;DHT22;41913;51.030;3.706;2022-12-24T00:28:08;19.40;95.40
56046;DHT22;41913;51.030;3.706;2022-12-24T00:30:36;19.40;95.40
56046;DHT22;41913;51.030;3.706;2022-12-24T00:33:02;19.30;95.60
56046;DHT22;41913;51.030;3.706;2022-12-24T00:35:28;19.30;95.40
56046;DHT22;41913;51.030;3.706;2022-12-24T00:37:53;19.30;95.60
56046;DHT22;41913;51.030;3.706;2022-12-24T00:40:19;19.30;95.40
56046;DHT22;41913;51.030;3.706;2022-12-24T00:42:46;19.30;95.30
56046;DHT22;41913;51.030;3.706;2022-12-24T00:45:12;19.30;95.30
56046;DHT22;41913;51.030;3.706;2022-12-24T00:47:38;19.30;95.30
56046;DHT22;41913;51.030;3.706;2022-12-24T00:50:04;19.30;95.30
56046;DHT22;41913;51.030;3.706;2022-12-24T00:52:30;19.30;95.30
56046;DHT22;41913;51.030;3.706;2022-12-24T00:54:55;19.30;95.30
56046;DHT22;41913;51.030;3.706;2022-12-24T00:57:21;19.30;95.30
56046;DHT22;41913;51.030;3.706;2022-12-24T00:59:47;19.30;95.20
56046;DHT22;41913;51.030;3.706;2022-12-24T01:02:12;19.30;95.20
56046;DHT22;41913;51.030;3.706;2022-12-24T01:04:38;19.20;95.10
56046;DHT22;41913;51.030;3.706;2022-12-24T01:07:22;19.20;95.10
56046;DHT22;41913;51.030;3.706;2022-12-24T01:09:48;19.20;95.10
56046;DHT22;41913;51.030;3.706;2022-12-24T01:12:13;19.20;95.00
56046;DHT22;41913;51.030;3.706;2022-12-24T01:14:39;19.20;95.00
56046;DHT22;41913;51.030;3.706;2022-12-24T01:17:06;19.20;95.00
56046;DHT22;41913;51.030;3.706;2022-12-24T01:19:32;19.20;95.00
56046;DHT22;41913;51.030;3.706;2022-12-24T01:21:59;19.20;95.00
56046;DHT22;41913;51.030;3.706;2022-12-24T01:24:25;19.20;95.00
56046;DHT22;41913;51.030;3.706;2022-12-24T01:26:50;19.20;94.90
56046;DHT22;41913;51.030;3.706;2022-12-24T01:29:16;19.20;94.90
56046;DHT22;41913;51.030;3.706;2022-12-24T01:31:42;19.20;94.90
56046;DHT22;41913;51.030;3.706;2022-12-24T01:34:07;19.20;94.90
56046;DHT22;41913;51.030;3.706;2022-12-24T01:36:33;19.10;94.90
56046;DHT22;41913;51.030;3.706;2022-12-24T01:39:00;19.10;94.80
56046;DHT22;41913;51.030;3.706;2022-12-24T01:41:25;19.10;94.80
56046;DHT22;41913;51.030;3.706;2022-12-24T01:44:26;19.10;94.80
56046;DHT22;41913;51.030;3.706;2022-12-24T01:47:15;19.10;95.00
56046;DHT22;41913;51.030;3.706;2022-12-24T01:49:55;19.10;94.70
56046;DHT22;41913;51.030;3.706;2022-12-24T01:52:25;19.10;94.80
56046;DHT22;41913;51.030;3.706;2022-12-24T01:54:56;19.10;94.70
56046;DHT22;41913;51.030;3.706;2022-12-24T01:59:53;19.10;94.70
56046;DHT22;41913;51.030;3.706;2022-12-24T02:02:20;19.10;94.70
56046;DHT22;41913;51.030;3.706;2022-12-24T02:05:04;19.10;94.70
56046;DHT22;41913;51.030;3.706;2022-12-24T02:07:31;19.10;94.70
56046;DHT22;41913;51.030;3.706;2022-12-24T02:09:59;19.10;94.70
56046;DHT22;41913;51.030;3.706;2022-12-24T02:12:27;19.10;94.70
56046;DHT22;41913;51.030;3.706;2022-12-24T02:14:54;19.10;94.70
56046;DHT22;41913;51.030;3.706;2022-12-24T02:31:40;19.00;94.50
56046;DHT22;41913;51.030;3.706;2022-12-24T02:34:14;19.00;94.60
56046;DHT22;41913;51.030;3.706;2022-12-24T02:37:25;19.00;94.60
56046;DHT22;41913;51.030;3.706;2022-12-24T02:40:09;19.00;94.50
56046;DHT22;41913;51.030;3.706;2022-12-24T02:42:41;19.00;94.50
56046;DHT22;41913;51.030;3.706;2022-12-24T02:45:08;19.00;94.50
56046;DHT22;41913;51.030;3.706;2022-12-24T02:47:35;19.00;94.50
56046;DHT22;41913;51.030;3.706;2022-12-24T02:50:03;19.00;94.50
56046;DHT22;41913;51.030;3.706;2022-12-24T02:52:35;19.00;94.50
56046;DHT22;41913;51.030;3.706;2022-12-24T02:55:13;19.00;94.40
56046;DHT22;41913;51.030;3.706;2022-12-24T02:57:53;19.00;94.70
56046;DHT22;41913;51.030;3.706;2022-12-24T03:00:22;19.00;94.40
56046;DHT22;41913;51.030;3.706;2022-12-24T03:05:50;18.90;94.30
56046;DHT22;41913;51.030;3.706;2022-12-24T03:08:30;18.90;94.30
56046;DHT22;41913;51.030;3.706;2022-12-24T03:13:30;18.90;94.30
56046;DHT22;41913;51.030;3.706;2022-12-24T03:15:56;18.90;94.30
56046;DHT22;41913;51.030;3.706;2022-12-24T03:18:25;18.90;94.30
56046;DHT22;41913;51.030;3.706;2022-12-24T03:21:05;18.90;94.30
56046;DHT22;41913;51.030;3.706;2022-12-24T03:23:33;18.90;94.30
56046;DHT22;41913;51.030;3.706;2022-12-24T03:26:01;18.90;94.20
56046;DHT22;41913;51.030;3.706;2022-12-24T03:28:29;18.90;94.20
56046;DHT22;41913;51.030;3.706;2022-12-24T03:30:56;18.90;94.20
56046;DHT22;41913;51.030;3.706;2022-12-24T03:33:25;18.90;94.20
56046;DHT22;41913;51.030;3.706;2022-12-24T03:35:50;18.90;94.20
56046;DHT22;41913;51.030;3.706;2022-12-24T03:38:16;18.90;94.20
56046;DHT22;41913;51.030;3.706;2022-12-24T03:40:41;18.90;94.20
56046;DHT22;41913;51.030;3.706;2022-12-24T03:43:07;18.90;94.20
56046;DHT22;41913;51.030;3.706;2022-12-24T03:45:33;18.90;94.20
56046;DHT22;41913;51.030;3.706;2022-12-24T03:47:58;18.90;94.10
56046;DHT22;41913;51.030;3.706;2022-12-24T03:50:25;18.90;94.10
56046;DHT22;41913;51.030;3.706;2022-12-24T03:52:51;18.90;94.10
56046;DHT22;41913;51.030;3.706;2022-12-24T03:55:16;18.90;94.10
56046;DHT22;41913;51.030;3.706;2022-12-24T03:57:42;18.90;94.10
56046;DHT22;41913;51.030;3.706;2022-12-24T04:00:08;18.90;94.10
56046;DHT22;41913;51.030;3.706;2022-12-24T04:02:34;18.90;94.10
56046;DHT22;41913;51.030;3.706;2022-12-24T04:04:59;18.80;94.10
56046;DHT22;41913;51.030;3.706;2022-12-24T04:07:25;18.90;94.10
56046;DHT22;41913;51.030;3.706;2022-12-24T04:09:51;18.80;94.10
56046;DHT22;41913;51.030;3.706;2022-12-24T04:12:17;18.80;94.10
56046;DHT22;41913;51.030;3.706;2022-12-24T04:14:42;18.80;94.10
56046;DHT22;41913;51.030;3.706;2022-12-24T04:17:08;18.80;94.00
56046;DHT22;41913;51.030;3.706;2022-12-24T04:19:34;18.90;94.30
56046;DHT22;41913;51.030;3.706;2022-12-24T04:21:59;18.80;94.00
56046;DHT22;41913;51.030;3.706;2022-12-24T04:24:25;18.80;94.00
56046;DHT22;41913;51.030;3.706;2022-12-24T04:26:50;18.80;94.00
56046;DHT22;41913;51.030;3.706;2022-12-24T04:29:16;18.80;94.00
56046;DHT22;41913;51.030;3.706;2022-12-24T04:31:42;18.80;94.00
56046;DHT22;41913;51.030;3.706;2022-12-24T04:34:07;18.80;94.00
56046;DHT22;41913;51.030;3.706;2022-12-24T04:36:33;18.80;94.00
56046;DHT22;41913;51.030;3.706;2022-12-24T04:38:59;18.80;94.00
56046;DHT22;41913;51.030;3.706;2022-12-24T04:41:24;18.80;94.20
56046;DHT22;41913;51.030;3.706;2022-12-24T04:43:52;18.80;94.00
56046;DHT22;41913;51.030;3.706;2022-12-24T04:46:20;18.80;94.00
56046;DHT22;41913;51.030;3.706;2022-12-24T04:48:48;18.80;94.00
56046;DHT22;41913;51.030;3.706;2022-12-24T04:51:14;18.80;94.10
56046;DHT22;41913;51.030;3.706;2022-12-24T04:53:41;18.80;94.20
56046;DHT22;41913;51.030;3.706;2022-12-24T04:56:15;18.80;94.20
56046;DHT22;41913;51.030;3.706;2022-12-24T04:58:41;18.80;94.50
56046;DHT22;41913;51.030;3.706;2022-12-24T05:01:09;18.80;94.40
56046;DHT22;41913;51.030;3.706;2022-12-24T05:03:36;18.80;94.40
56046;DHT22;41913;51.030;3.706;2022-12-24T05:06:03;18.70;94.50
56046;DHT22;41913;51.030;3.706;2022-12-24T05:08:29;18.70;94.50
56046;DHT22;41913;51.030;3.706;2022-12-24T05:10:56;18.70;94.60
56046;DHT22;41913;51.030;3.706;2022-12-24T05:13:22;18.70;94.60
56046;DHT22;41913;51.030;3.706;2022-12-24T05:15:48;18.70;94.70
56046;DHT22;41913;51.030;3.706;2022-12-24T05:18:13;18.70;94.70
56046;DHT22;41913;51.030;3.706;2022-12-24T05:20:42;18.70;94.80
56046;DHT22;41913;51.030;3.706;2022-12-24T05:23:15;18.70;94.80
56046;DHT22;41913;51.030;3.706;2022-12-24T05:25:59;18.70;94.90
56046;DHT22;41913;51.030;3.706;2022-12-24T05:28:44;18.70;94.90
56046;DHT22;41913;51.030;3.706;2022-12-24T05:31:09;18.70;95.00
56046;DHT22;41913;51.030;3.706;2022-12-24T05:33:35;18.70;95.00
56046;DHT22;41913;51.030;3.706;2022-12-24T05:36:00;18.70;95.00
56046;DHT22;41913;51.030;3.706;2022-12-24T05:38:26;18.70;95.10
56046;DHT22;41913;51.030;3.706;2022-12-24T05:40:52;18.70;95.10
56046;DHT22;41913;51.030;3.706;2022-12-24T05:43:17;18.70;95.10
56046;DHT22;41913;51.030;3.706;2022-12-24T05:45:43;18.70;95.10
56046;DHT22;41913;51.030;3.706;2022-12-24T05:48:08;18.70;95.10
56046;DHT22;41913;51.030;3.706;2022-12-24T05:50:35;18.70;95.20
56046;DHT22;41913;51.030;3.706;2022-12-24T05:53:00;18.70;95.20
56046;DHT22;41913;51.030;3.706;2022-12-24T05:55:26;18.70;95.30
56046;DHT22;41913;51.030;3.706;2022-12-24T05:57:52;18.80;95.30
56046;DHT22;41913;51.030;3.706;2022-12-24T06:00:18;18.80;95.30
56046;DHT22;41913;51.030;3.706;2022-12-24T06:02:44;18.80;95.40
56046;DHT22;41913;51.030;3.706;2022-12-24T06:05:10;18.80;95.40
56046;DHT22;41913;51.030;3.706;2022-12-24T06:07:36;18.80;95.40
56046;DHT22;41913;51.030;3.706;2022-12-24T06:10:01;18.80;95.40
56046;DHT22;41913;51.030;3.706;2022-12-24T06:12:27;18.80;95.50
56046;DHT22;41913;51.030;3.706;2022-12-24T06:14:53;18.80;95.40
56046;DHT22;41913;51.030;3.706;2022-12-24T06:17:18;18.80;95.40
56046;DHT22;41913;51.030;3.706;2022-12-24T06:19:44;18.80;95.40
56046;DHT22;41913;51.030;3.706;2022-12-24T06:22:10;18.80;95.40
56046;DHT22;41913;51.030;3.706;2022-12-24T06:24:36;18.80;95.40
56046;DHT22;41913;51.030;3.706;2022-12-24T06:27:01;18.70;95.40
56046;DHT22;41913;51.030;3.706;2022-12-24T06:29:27;18.70;95.40
56046;DHT22;41913;51.030;3.706;2022-12-24T06:31:53;18.70;95.40
56046;DHT22;41913;51.030;3.706;2022-12-24T06:34:18;18.70;95.40
56046;DHT22;41913;51.030;3.706;2022-12-24T06:36:44;18.70;95.50
56046;DHT22;41913;51.030;3.706;2022-12-24T06:39:10;18.70;95.50
56046;DHT22;41913;51.030;3.706;2022-12-24T06:41:36;18.70;95.50
56046;DHT22;41913;51.030;3.706;2022-12-24T06:44:01;18.60;95.50
56046;DHT22;41913;51.030;3.706;2022-12-24T06:46:27;18.60;95.50
56046;DHT22;41913;51.030;3.706;2022-12-24T06:48:53;18.60;95.50
56046;DHT22;41913;51.030;3.706;2022-12-24T06:51:19;18.60;95.60
56046;DHT22;41913;51.030;3.706;2022-12-24T06:53:45;18.60;95.60
56046;DHT22;41913;51.030;3.706;2022-12-24T06:56:12;18.50;95.60
56046;DHT22;41913;51.030;3.706;2022-12-24T06:58:39;18.50;95.60
56046;DHT22;41913;51.030;3.706;2022-12-24T07:01:07;18.50;95.60
56046;DHT22;41913;51.030;3.706;2022-12-24T07:03:33;18.60;95.60
56046;DHT22;41913;51.030;3.706;2022-12-24T07:05:59;18.50;95.60
56046;DHT22;41913;51.030;3.706;2022-12-24T07:08:25;18.50;95.70
56046;DHT22;41913;51.030;3.706;2022-12-24T07:10:51;18.50;95.70
56046;DHT22;41913;51.030;3.706;2022-12-24T07:13:18;18.50;95.70
56046;DHT22;41913;51.030;3.706;2022-12-24T07:15:44;18.50;95.70
56046;DHT22;41913;51.030;3.706;2022-12-24T07:18:11;18.50;95.70
56046;DHT22;41913;51.030;3.706;2022-12-24T07:20:38;18.50;95.70
56046;DHT22;41913;51.030;3.706;2022-12-24T07:23:04;18.50;95.80
56046;DHT22;41913;51.030;3.706;2022-12-24T07:25:29;18.50;95.90
56046;DHT22;41913;51.030;3.706;2022-12-24T07:27:55;18.60;96.00
56046;DHT22;41913;51.030;3.706;2022-12-24T07:30:23;18.60;96.20
56046;DHT22;41913;51.030;3.706;2022-12-24T07:32:50;18.60;96.20
56046;DHT22;41913;51.030;3.706;2022-12-24T07:35:16;18.70;96.20
56046;DHT22;41913;51.030;3.706;2022-12-24T07:37:41;18.70;96.10
56046;DHT22;41913;51.030;3.706;2022-12-24T07:40:07;18.80;96.10
56046;DHT22;41913;51.030;3.706;2022-12-24T07:42:34;18.90;96.30
56046;DHT22;41913;51.030;3.706;2022-12-24T07:45:00;18.90;96.40
56046;DHT22;41913;51.030;3.706;2022-12-24T07:47:25;19.00;96.50
56046;DHT22;41913;51.030;3.706;2022-12-24T07:49:51;19.00;96.50
56046;DHT22;41913;51.030;3.706;2022-12-24T07:52:16;19.00;96.50
56046;DHT22;41913;51.030;3.706;2022-12-24T07:54:42;19.10;96.50
56046;DHT22;41913;51.030;3.706;2022-12-24T07:57:08;19.10;96.60
56046;DHT22;41913;51.030;3.706;2022-12-24T07:59:33;19.10;96.70
56046;DHT22;41913;51.030;3.706;2022-12-24T08:01:59;19.20;96.80
56046;DHT22;41913;51.030;3.706;2022-12-24T08:04:25;19.30;97.00
56046;DHT22;41913;51.030;3.706;2022-12-24T08:06:50;19.30;97.10
56046;DHT22;41913;51.030;3.706;2022-12-24T08:09:16;19.40;97.60
56046;DHT22;41913;51.030;3.706;2022-12-24T08:11:42;19.50;97.30
56046;DHT22;41913;51.030;3.706;2022-12-24T08:14:07;19.50;97.30
56046;DHT22;41913;51.030;3.706;2022-12-24T08:16:33;19.50;97.20
56046;DHT22;41913;51.030;3.706;2022-12-24T08:18:59;19.50;97.30
56046;DHT22;41913;51.030;3.706;2022-12-24T08:21:24;19.50;97.30
56046;DHT22;41913;51.030;3.706;2022-12-24T08:23:50;19.50;97.30
56046;DHT22;41913;51.030;3.706;2022-12-24T08:26:16;19.50;97.40
56046;DHT22;41913;51.030;3.706;2022-12-24T08:28:43;19.50;97.40
56046;DHT22;41913;51.030;3.706;2022-12-24T08:31:10;19.50;97.70
56046;DHT22;41913;51.030;3.706;2022-12-24T08:33:37;19.50;97.50
56046;DHT22;41913;51.030;3.706;2022-12-24T08:36:02;19.50;97.60
56046;DHT22;41913;51.030;3.706;2022-12-24T08:38:28;19.40;97.80
56046;DHT22;41913;51.030;3.706;2022-12-24T08:40:55;19.50;97.70
56046;DHT22;41913;51.030;3.706;2022-12-24T08:43:21;19.40;97.70
56046;DHT22;41913;51.030;3.706;2022-12-24T08:45:47;19.40;97.70
56046;DHT22;41913;51.030;3.706;2022-12-24T08:48:16;19.40;97.60
56046;DHT22;41913;51.030;3.706;2022-12-24T08:50:42;19.30;97.50
56046;DHT22;41913;51.030;3.706;2022-12-24T08:53:09;19.40;97.50
56046;DHT22;41913;51.030;3.706;2022-12-24T08:55:35;19.40;97.40
56046;DHT22;41913;51.030;3.706;2022-12-24T08:58:01;19.30;97.30
56046;DHT22;41913;51.030;3.706;2022-12-24T09:00:27;19.30;97.30
56046;DHT22;41913;51.030;3.706;2022-12-24T09:02:53;19.30;97.10
56046;DHT22;41913;51.030;3.706;2022-12-24T09:05:20;19.20;96.90
56046;DHT22;41913;51.030;3.706;2022-12-24T09:07:45;19.20;96.90
56046;DHT22;41913;51.030;3.706;2022-12-24T09:10:11;19.20;96.90
56046;DHT22;41913;51.030;3.706;2022-12-24T09:12:37;19.20;96.90
56046;DHT22;41913;51.030;3.706;2022-12-24T09:15:03;19.20;96.90
56046;DHT22;41913;51.030;3.706;2022-12-24T09:17:30;19.10;96.90
56046;DHT22;41913;51.030;3.706;2022-12-24T09:19:56;19.10;96.80
56046;DHT22;41913;51.030;3.706;2022-12-24T09:22:21;19.10;96.80
56046;DHT22;41913;51.030;3.706;2022-12-24T09:24:47;19.10;96.80
56046;DHT22;41913;51.030;3.706;2022-12-24T09:27:13;19.10;96.80
56046;DHT22;41913;51.030;3.706;2022-12-24T09:29:39;19.10;96.80
56046;DHT22;41913;51.030;3.706;2022-12-24T09:32:06;19.10;96.90
56046;DHT22;41913;51.030;3.706;2022-12-24T09:34:31;19.00;96.80
56046;DHT22;41913;51.030;3.706;2022-12-24T09:36:58;19.00;96.80
56046;DHT22;41913;51.030;3.706;2022-12-24T09:39:25;19.00;96.90
56046;DHT22;41913;51.030;3.706;2022-12-24T09:44:41;19.00;96.90
56046;DHT22;41913;51.030;3.706;2022-12-24T09:49:43;18.90;96.90
56046;DHT22;41913;51.030;3.706;2022-12-24T09:52:13;18.90;96.90
56046;DHT22;41913;51.030;3.706;2022-12-24T09:54:46;18.90;96.90
56046;DHT22;41913;51.030;3.706;2022-12-24T09:57:22;18.90;96.90
56046;DHT22;41913;51.030;3.706;2022-12-24T09:59:49;18.90;96.90
56046;DHT22;41913;51.030;3.706;2022-12-24T10:02:17;18.90;96.90
56046;DHT22;41913;51.030;3.706;2022-12-24T10:04:45;18.90;96.90
56046;DHT22;41913;51.030;3.706;2022-12-24T10:07:39;18.80;96.90
56046;DHT22;41913;51.030;3.706;2022-12-24T10:10:13;18.80;96.90
56046;DHT22;41913;51.030;3.706;2022-12-24T10:13:17;18.80;96.90
56046;DHT22;41913;51.030;3.706;2022-12-24T10:15:55;18.80;96.90
56046;DHT22;41913;51.030;3.706;2022-12-24T10:21:15;18.80;96.90
56046;DHT22;41913;51.030;3.706;2022-12-24T10:23:51;18.80;96.90
56046;DHT22;41913;51.030;3.706;2022-12-24T10:29:16;18.70;96.90
56046;DHT22;41913;51.030;3.706;2022-12-24T10:34:39;18.70;96.90
56046;DHT22;41913;51.030;3.706;2022-12-24T10:37:06;18.70;96.80
56046;DHT22;41913;51.030;3.706;2022-12-24T10:39:34;18.70;96.80
56046;DHT22;41913;51.030;3.706;2022-12-24T10:42:00;18.70;96.80
56046;DHT22;41913;51.030;3.706;2022-12-24T10:44:29;18.70;96.80
56046;DHT22;41913;51.030;3.706;2022-12-24T10:46:56;18.70;96.80
56046;DHT22;41913;51.030;3.706;2022-12-24T10:49:34;18.70;96.80
56046;DHT22;41913;51.030;3.706;2022-12-24T10:52:23;18.70;96.80
56046;DHT22;41913;51.030;3.706;2022-12-24T10:55:21;18.70;96.80
56046;DHT22;41913;51.030;3.706;2022-12-24T10:58:00;18.70;96.80
56046;DHT22;41913;51.030;3.706;2022-12-24T11:00:27;18.70;96.80
56046;DHT22;41913;51.030;3.706;2022-12-24T11:03:30;18.60;96.80
56046;DHT22;41913;51.030;3.706;2022-12-24T11:06:10;18.60;96.70
56046;DHT22;41913;51.030;3.706;2022-12-24T11:08:42;18.60;96.70
56046;DHT22;41913;51.030;3.706;2022-12-24T11:11:17;18.60;96.70
56046;DHT22;41913;51.030;3.706;2022-12-24T11:18:44;18.60;96.70
56046;DHT22;41913;51.030;3.706;2022-12-24T11:21:21;18.60;96.60
56046;DHT22;41913;51.030;3.706;2022-12-24T11:23:57;18.60;96.60
56046;DHT22;41913;51.030;3.706;2022-12-24T11:26:26;18.60;96.60
56046;DHT22;41913;51.030;3.706;2022-12-24T11:29:21;18.60;96.90
56046;DHT22;41913;51.030;3.706;2022-12-24T11:31:48;18.50;96.60
56046;DHT22;41913;51.030;3.706;2022-12-24T11:34:30;18.50;96.60
56046;DHT22;41913;51.030;3.706;2022-12-24T11:39:40;18.60;96.60
56046;DHT22;41913;51.030;3.706;2022-12-24T11:42:07;18.50;96.60
56046;DHT22;41913;51.030;3.706;2022-12-24T11:44:48;18.50;96.70
56046;DHT22;41913;51.030;3.706;2022-12-24T11:47:14;18.50;96.60
56046;DHT22;41913;51.030;3.706;2022-12-24T11:49:40;18.60;96.60
56046;DHT22;41913;51.030;3.706;2022-12-24T11:55:02;18.60;96.50
56046;DHT22;41913;51.030;3.706;2022-12-24T11:57:46;18.60;96.50
56046;DHT22;41913;51.030;3.706;2022-12-24T12:00:14;18.50;96.40
56046;DHT22;41913;51.030;3.706;2022-12-24T12:02:42;18.50;96.40
56046;DHT22;41913;51.030;3.706;2022-12-24T12:05:24;18.50;96.30
56046;DHT22;41913;51.030;3.706;2022-12-24T12:07:55;18.50;96.30
56046;DHT22;41913;51.030;3.706;2022-12-24T12:10:25;18.50;96.30
56046;DHT22;41913;51.030;3.706;2022-12-24T12:12:59;18.50;96.20
56046;DHT22;41913;51.030;3.706;2022-12-24T12:15:56;18.50;96.20
56046;DHT22;41913;51.030;3.706;2022-12-24T12:18:37;18.50;96.20
56046;DHT22;41913;51.030;3.706;2022-12-24T12:21:51;18.50;96.20
56046;DHT22;41913;51.030;3.706;2022-12-24T12:23:57;18.50;96.10
56046;DHT22;41913;51.030;3.706;2022-12-24T12:26:26;18.50;96.10
56046;DHT22;41913;51.030;3.706;2022-12-24T12:31:48;18.40;96.10
56046;DHT22;41913;51.030;3.706;2022-12-24T12:35:24;18.40;96.00
56046;DHT22;41913;51.030;3.706;2022-12-24T12:37:24;18.40;96.00
56046;DHT22;41913;51.030;3.706;2022-12-24T12:39:53;18.40;96.00
56046;DHT22;41913;51.030;3.706;2022-12-24T12:42:32;18.40;96.00
56046;DHT22;41913;51.030;3.706;2022-12-24T12:50:05;18.40;96.00
56046;DHT22;41913;51.030;3.706;2022-12-24T12:58:46;18.40;96.00
56046;DHT22;41913;51.030;3.706;2022-12-24T13:01:19;18.40;96.10
56046;DHT22;41913;51.030;3.706;2022-12-24T13:13:01;18.40;96.10
56046;DHT22;41913;51.030;3.706;2022-12-24T13:20:39;18.40;96.10
56046;DHT22;41913;51.030;3.706;2022-12-24T13:23:23;18.40;96.20
56046;DHT22;41913;51.030;3.706;2022-12-24T13:25:52;18.40;96.20
56046;DHT22;41913;51.030;3.706;2022-12-24T13:36:09;18.40;96.20
56046;DHT22;41913;51.030;3.706;2022-12-24T13:46:49;18.40;96.30
56046;DHT22;41913;51.030;3.706;2022-12-24T13:49:29;18.40;96.30
56046;DHT22;41913;51.030;3.706;2022-12-24T13:55:00;18.40;96.30
56046;DHT22;41913;51.030;3.706;2022-12-24T13:57:34;18.40;96.30
56046;DHT22;41913;51.030;3.706;2022-12-24T14:02:46;18.40;96.40
56046;DHT22;41913;51.030;3.706;2022-12-24T14:05:20;18.40;96.40
56046;DHT22;41913;51.030;3.706;2022-12-24T14:07:49;18.40;96.40
56046;DHT22;41913;51.030;3.706;2022-12-24T14:10:25;18.40;96.40
56046;DHT22;41913;51.030;3.706;2022-12-24T14:12:52;18.40;96.40
56046;DHT22;41913;51.030;3.706;2022-12-24T14:18:22;18.40;96.50
56046;DHT22;41913;51.030;3.706;2022-12-24T14:20:55;18.40;96.50
56046;DHT22;41913;51.030;3.706;2022-12-24T14:26:35;18.40;96.70
56046;DHT22;41913;51.030;3.706;2022-12-24T14:29:21;18.40;96.50
56046;DHT22;41913;51.030;3.706;2022-12-24T14:31:50;18.30;96.50
56046;DHT22;41913;51.030;3.706;2022-12-24T14:34:17;18.40;96.50
56046;DHT22;41913;51.030;3.706;2022-12-24T14:36:43;18.40;96.50
56046;DHT22;41913;51.030;3.706;2022-12-24T14:39:34;18.40;96.60
56046;DHT22;41913;51.030;3.706;2022-12-24T14:42:31;18.40;96.60
56046;DHT22;41913;51.030;3.706;2022-12-24T14:45:07;18.40;96.50
56046;DHT22;41913;51.030;3.706;2022-12-24T14:50:33;18.40;96.50
56046;DHT22;41913;51.030;3.706;2022-12-24T14:55:51;18.40;96.50
56046;DHT22;41913;51.030;3.706;2022-12-24T15:00:48;18.40;96.50
56046;DHT22;41913;51.030;3.706;2022-12-24T15:03:18;18.40;96.50
56046;DHT22;41913;51.030;3.706;2022-12-24T15:05:53;18.40;96.50
56046;DHT22;41913;51.030;3.706;2022-12-24T15:08:33;18.40;96.40
56046;DHT22;41913;51.030;3.706;2022-12-24T15:11:04;18.40;96.40
56046;DHT22;41913;51.030;3.706;2022-12-24T15:13:38;18.40;96.40
56046;DHT22;41913;51.030;3.706;2022-12-24T15:16:08;18.40;96.40
56046;DHT22;41913;51.030;3.706;2022-12-24T15:18:38;18.40;96.40
56046;DHT22;41913;51.030;3.706;2022-12-24T15:21:24;18.40;96.40
56046;DHT22;41913;51.030;3.706;2022-12-24T15:23:52;18.40;96.40
56046;DHT22;41913;51.030;3.706;2022-12-24T15:28:47;18.40;96.40
56046;DHT22;41913;51.030;3.706;2022-12-24T15:31:15;18.40;96.40
56046;DHT22;41913;51.030;3.706;2022-12-24T15:33:46;18.40;96.40
56046;DHT22;41913;51.030;3.706;2022-12-24T15:36:13;18.40;96.40
56046;DHT22;41913;51.030;3.706;2022-12-24T15:38:42;18.40;96.40
56046;DHT22;41913;51.030;3.706;2022-12-24T15:41:17;18.30;96.30
56046;DHT22;41913;51.030;3.706;2022-12-24T15:43:45;18.30;96.30
56046;DHT22;41913;51.030;3.706;2022-12-24T15:46:25;18.40;96.40
56046;DHT22;41913;51.030;3.706;2022-12-24T15:48:54;18.30;96.60
56046;DHT22;41913;51.030;3.706;2022-12-24T15:51:30;18.40;96.40
56046;DHT22;41913;51.030;3.706;2022-12-24T15:54:02;18.30;96.30
56046;DHT22;41913;51.030;3.706;2022-12-24T15:56:38;18.30;96.30
56046;DHT22;41913;51.030;3.706;2022-12-24T16:01:45;18.30;96.30
56046;DHT22;41913;51.030;3.706;2022-12-24T16:06:59;18.30;96.30
56046;DHT22;41913;51.030;3.706;2022-12-24T16:09:31;18.30;96.30
56046;DHT22;41913;51.030;3.706;2022-12-24T16:12:03;18.30;96.30
56046;DHT22;41913;51.030;3.706;2022-12-24T16:14:29;18.30;96.30
56046;DHT22;41913;51.030;3.706;2022-12-24T16:16:56;18.30;96.30
56046;DHT22;41913;51.030;3.706;2022-12-24T16:19:33;18.30;96.30
56046;DHT22;41913;51.030;3.706;2022-12-24T16:22:00;18.30;96.30
56046;DHT22;41913;51.030;3.706;2022-12-24T16:24:49;18.30;96.30
56046;DHT22;41913;51.030;3.706;2022-12-24T16:27:17;18.30;96.30
56046;DHT22;41913;51.030;3.706;2022-12-24T16:29:42;18.30;96.30
56046;DHT22;41913;51.030;3.706;2022-12-24T16:32:37;18.30;96.30
56046;DHT22;41913;51.030;3.706;2022-12-24T16:35:24;18.30;96.30
56046;DHT22;41913;51.030;3.706;2022-12-24T16:37:53;18.30;96.30
56046;DHT22;41913;51.030;3.706;2022-12-24T16:40:20;18.30;96.30
56046;DHT22;41913;51.030;3.706;2022-12-24T16:42:46;18.30;96.30
56046;DHT22;41913;51.030;3.706;2022-12-24T16:45:33;18.30;96.30
56046;DHT22;41913;51.030;3.706;2022-12-24T16:48:00;18.20;96.30
56046;DHT22;41913;51.030;3.706;2022-12-24T16:50:26;18.30;96.30
56046;DHT22;41913;51.030;3.706;2022-12-24T16:52:52;18.20;96.50
56046;DHT22;41913;51.030;3.706;2022-12-24T16:55:18;18.20;96.30
56046;DHT22;41913;51.030;3.706;2022-12-24T16:57:45;18.30;96.30
56046;DHT22;41913;51.030;3.706;2022-12-24T17:00:19;18.20;96.30
56046;DHT22;41913;51.030;3.706;2022-12-24T17:02:46;18.20;96.30
56046;DHT22;41913;51.030;3.706;2022-12-24T17:05:12;18.20;96.30
56046;DHT22;41913;51.030;3.706;2022-12-24T17:07:39;18.20;96.30
56046;DHT22;41913;51.030;3.706;2022-12-24T17:10:08;18.20;96.30
56046;DHT22;41913;51.030;3.706;2022-12-24T17:12:34;18.20;96.20
56046;DHT22;41913;51.030;3.706;2022-12-24T17:14:59;18.20;96.20
56046;DHT22;41913;51.030;3.706;2022-12-24T17:17:28;18.20;96.20
56046;DHT22;41913;51.030;3.706;2022-12-24T17:19:54;18.20;96.20
56046;DHT22;41913;51.030;3.706;2022-12-24T17:22:22;18.20;96.20
56046;DHT22;41913;51.030;3.706;2022-12-24T17:24:48;18.20;96.20
56046;DHT22;41913;51.030;3.706;2022-12-24T17:27:14;18.20;96.20
56046;DHT22;41913;51.030;3.706;2022-12-24T17:29:40;18.30;96.20
56046;DHT22;41913;51.030;3.706;2022-12-24T17:32:06;18.20;96.20
56046;DHT22;41913;51.030;3.706;2022-12-24T17:34:31;18.20;96.20
56046;DHT22;41913;51.030;3.706;2022-12-24T17:36:57;18.20;96.20
56046;DHT22;41913;51.030;3.706;2022-12-24T17:39:23;18.20;96.20
56046;DHT22;41913;51.030;3.706;2022-12-24T17:41:49;18.20;96.20
56046;DHT22;41913;51.030;3.706;2022-12-24T17:44:15;18.20;96.20